createdAt,value
2018-12-14T00:01:02.824Z,22.32
2018-12-14T00:03:32.640Z,19.45
2018-12-14T00:06:01.472Z,28.70
2018-12-14T00:08:31.180Z,22.80
2018-12-14T00:11:10.237Z,26.80
2018-12-14T00:13:39.096Z,23.40
2018-12-14T00:16:07.960Z,22.30
2018-12-14T00:18:37.811Z,22.55
2018-12-14T00:21:06.804Z,21.12
2018-12-14T00:23:37.496Z,24.70
2018-12-14T00:26:07.684Z,23.73
2018-12-14T00:28:38.328Z,23.15
2018-12-14T00:31:09.470Z,25.12
2018-12-14T00:33:40.232Z,24.50
2018-12-14T00:36:10.088Z,24.15
2018-12-14T00:38:39.096Z,23.00
2018-12-14T00:41:12.800Z,23.15
2018-12-14T00:43:45.372Z,19.27
2018-12-14T00:46:18.068Z,19.27
2018-12-14T00:48:46.968Z,23.98
2018-12-14T00:51:23.992Z,16.85
2018-12-14T00:53:58.556Z,23.02
2018-12-14T00:56:29.300Z,22.10
2018-12-14T00:58:59.128Z,23.83
2018-12-14T01:01:32.320Z,22.95
2018-12-14T01:04:04.996Z,23.10
2018-12-14T01:42:41.240Z,34.00
2018-12-14T02:03:48.876Z,17.12
2018-12-14T02:43:00.276Z,25.90
2018-12-14T03:03:27.856Z,21.68
2018-12-14T03:24:00.944Z,27.10
2018-12-14T03:44:33.267Z,21.77
2018-12-14T04:44:57.005Z,13.93
2018-12-14T05:05:29.482Z,17.48
2018-12-14T05:26:01.769Z,22.42
2018-12-14T05:46:27.353Z,21.85
2018-12-14T06:07:00.314Z,19.95
2018-12-14T06:27:32.533Z,23.27
2018-12-14T06:48:06.261Z,13.85
2018-12-14T07:08:45.881Z,21.77
2018-12-14T07:38:27.095Z,24.32
2018-12-14T07:40:56.965Z,23.83
2018-12-14T07:43:28.466Z,21.80
2018-12-14T07:45:58.498Z,18.27
2018-12-14T07:48:31.463Z,27.73
2018-12-14T07:51:01.277Z,19.98
2018-12-14T07:53:35.689Z,18.85
2018-12-14T07:56:10.249Z,20.20
2018-12-14T07:58:39.205Z,19.48
2018-12-14T08:01:09.956Z,23.20
2018-12-14T08:03:40.765Z,24.27
2018-12-14T08:06:10.546Z,20.17
2018-12-14T08:08:41.282Z,21.00
2018-12-14T08:11:11.069Z,19.90
2018-12-14T08:13:39.929Z,20.08
2018-12-14T08:16:08.750Z,20.37
2018-12-14T08:18:42.179Z,42.25
2018-12-14T08:21:16.117Z,22.15
2018-12-14T08:23:44.841Z,19.37
2018-12-14T08:26:16.410Z,21.75
2018-12-14T08:28:45.262Z,25.10
2018-12-14T08:31:14.127Z,29.00
2018-12-14T08:33:42.937Z,22.35
2018-12-14T08:36:11.647Z,27.35
2018-12-14T08:38:45.410Z,26.07
2018-12-14T08:41:16.250Z,20.20
2018-12-14T08:43:49.141Z,22.52
2018-12-14T08:46:19.918Z,22.30
2018-12-14T08:48:48.706Z,22.93
2018-12-14T08:51:19.489Z,22.05
2018-12-14T08:53:49.358Z,18.20
2018-12-14T08:56:22.645Z,21.35
2018-12-14T08:58:51.442Z,22.67
2018-12-14T09:01:21.406Z,27.13
2018-12-14T09:03:50.306Z,23.22
2018-12-14T09:06:19.018Z,26.85
2018-12-14T09:08:49.769Z,19.67
2018-12-14T09:11:23.858Z,20.08
2018-12-14T09:13:52.647Z,18.60
2018-12-14T09:16:21.611Z,19.60
2018-12-14T09:18:54.306Z,23.57
2018-12-14T09:21:34.011Z,21.12
2018-12-14T09:24:08.988Z,18.73
2018-12-14T09:26:48.995Z,22.35
2018-12-14T09:29:17.818Z,22.35
2018-12-14T09:31:48.834Z,19.05
2018-12-14T09:34:17.698Z,20.08
2018-12-14T09:36:46.539Z,18.37
2018-12-14T09:39:15.405Z,24.90
2018-12-14T09:41:44.218Z,19.40
2018-12-14T09:44:13.996Z,17.82
2018-12-14T09:46:44.710Z,24.00
2018-12-14T09:49:13.446Z,25.17
2018-12-14T09:51:43.072Z,21.12
2018-12-14T09:54:11.842Z,20.62
2018-12-14T09:56:40.662Z,17.00
2018-12-14T09:59:14.102Z,22.95
2018-12-14T10:01:43.986Z,20.35
2018-12-14T10:04:16.478Z,23.05
2018-12-14T10:06:50.746Z,21.30
2018-12-14T10:09:19.607Z,18.20
2018-12-14T10:11:55.025Z,22.40
2018-12-14T10:14:20.075Z,15.25
2018-12-14T10:17:09.382Z,20.88
2018-12-14T10:19:42.874Z,18.87
2018-12-14T10:22:11.702Z,21.37
2018-12-14T10:24:44.166Z,19.15
2018-12-14T10:27:14.861Z,26.40
2018-12-14T10:29:43.726Z,21.68
2018-12-14T10:32:12.574Z,19.57
2018-12-14T10:34:41.434Z,24.95
2018-12-14T10:37:13.820Z,21.35
2018-12-14T10:39:44.677Z,22.45
2018-12-14T10:42:17.258Z,18.30
2018-12-14T10:44:46.938Z,25.35
2018-12-14T10:47:17.702Z,16.30
2018-12-14T10:49:50.902Z,17.30
2018-12-14T10:52:20.133Z,19.98
2018-12-14T10:54:48.970Z,18.02
2018-12-14T10:57:28.187Z,21.00
2018-12-14T10:59:57.038Z,24.40
2018-12-14T11:02:25.901Z,29.15
2018-12-14T11:04:54.746Z,22.67
2018-12-14T11:07:23.623Z,22.42
2018-12-14T11:09:53.265Z,17.20
2018-12-14T11:12:29.907Z,19.77
2018-12-14T11:15:02.409Z,15.48
2018-12-14T11:17:31.333Z,13.13
2018-12-14T11:20:01.113Z,17.10
2018-12-14T11:22:33.469Z,15.90
2018-12-14T11:25:02.445Z,26.50
2018-12-14T11:27:32.110Z,18.10
2018-12-14T11:30:00.994Z,17.95
2018-12-14T11:32:32.022Z,22.15
2018-12-14T11:35:00.722Z,22.95
2018-12-14T11:37:33.106Z,13.22
2018-12-14T11:40:08.065Z,16.93
2018-12-14T11:42:37.842Z,19.20
2018-12-14T11:45:08.613Z,19.15
2018-12-14T11:47:47.429Z,16.10
2018-12-14T11:50:16.235Z,12.70
2018-12-14T11:52:48.509Z,17.25
2018-12-14T11:55:46.581Z,17.25
2018-12-14T11:58:15.470Z,17.02
2018-12-14T12:00:46.185Z,11.45
2018-12-14T12:03:20.721Z,9.85
2018-12-14T12:05:53.181Z,11.30
2018-12-14T12:08:40.625Z,12.68
2018-12-14T12:11:10.469Z,11.83
2018-12-14T12:13:41.142Z,10.35
2018-12-14T12:16:10.030Z,21.68
2018-12-14T12:18:44.064Z,16.90
2018-12-14T12:21:16.866Z,18.62
2018-12-14T12:23:46.674Z,10.68
2018-12-14T12:26:17.717Z,14.90
2018-12-14T12:28:47.461Z,12.35
2018-12-14T12:31:16.385Z,16.45
2018-12-14T12:33:47.229Z,12.13
2018-12-14T12:36:16.022Z,12.30
2018-12-14T12:38:46.870Z,16.77
2018-12-14T12:41:19.649Z,23.92
2018-12-14T12:43:48.461Z,16.75
2018-12-14T12:46:17.193Z,15.75
2018-12-14T12:48:46.321Z,21.57
2018-12-14T12:51:16.561Z,20.32
2018-12-14T12:53:45.345Z,16.15
2018-12-14T12:56:14.417Z,15.93
2018-12-14T12:58:43.212Z,15.93
2018-12-14T13:01:12.926Z,13.95
2018-12-14T13:03:43.689Z,14.68
2018-12-14T13:06:16.749Z,14.47
2018-12-14T13:08:47.501Z,13.85
2018-12-14T13:11:17.297Z,12.47
2018-12-14T13:13:46.117Z,14.03
2018-12-14T13:16:14.977Z,18.10
2018-12-14T13:18:47.212Z,15.35
2018-12-14T13:21:16.210Z,14.75
2018-12-14T13:23:45.101Z,17.05
2018-12-14T13:26:13.897Z,15.18
2018-12-14T13:28:42.701Z,16.15
2018-12-14T13:31:11.512Z,21.77
2018-12-14T13:33:47.429Z,21.27
2018-12-14T13:36:17.233Z,13.65
2018-12-14T13:38:47.045Z,13.45
2018-12-14T13:41:15.914Z,14.38
2018-12-14T13:43:44.757Z,16.20
2018-12-14T13:46:14.541Z,22.15
2018-12-14T13:48:43.456Z,12.15
2018-12-14T13:51:13.209Z,17.05
2018-12-14T13:53:42.077Z,16.37
2018-12-14T13:56:10.921Z,17.95
2018-12-14T13:58:40.633Z,18.07
2018-12-14T14:01:09.501Z,15.58
2018-12-14T14:03:41.157Z,16.85
2018-12-14T14:06:16.953Z,10.88
2018-12-14T14:08:46.701Z,17.07
2018-12-14T14:11:16.350Z,12.53
2018-12-14T14:13:45.241Z,17.30
2018-12-14T14:16:14.133Z,15.43
2018-12-14T14:18:43.965Z,13.90
2018-12-14T14:21:12.853Z,16.85
2018-12-14T14:23:41.597Z,16.52
2018-12-14T14:26:11.309Z,16.05
2018-12-14T14:28:40.138Z,16.80
2018-12-14T14:31:09.029Z,18.48
2018-12-14T14:33:37.828Z,37.53
2018-12-14T14:36:07.733Z,33.05
2018-12-14T14:38:39.493Z,18.15
2018-12-14T14:41:09.316Z,11.73
2018-12-14T14:43:38.985Z,13.10
2018-12-14T14:46:07.943Z,14.63
2018-12-14T14:48:38.717Z,11.80
2018-12-14T14:51:08.950Z,10.00
2018-12-14T14:53:41.329Z,12.00
2018-12-14T14:56:10.061Z,13.03
2018-12-14T14:58:39.721Z,13.43
2018-12-14T15:01:09.512Z,11.78
2018-12-14T15:03:39.301Z,10.25
2018-12-14T15:06:10.070Z,14.38
2018-12-14T15:08:39.781Z,13.80
2018-12-14T15:11:09.581Z,11.75
2018-12-14T15:13:41.253Z,17.23
2018-12-14T15:16:14.866Z,14.50
2018-12-14T15:18:47.618Z,13.35
2018-12-14T15:21:16.482Z,17.42
2018-12-14T15:23:45.362Z,14.35
2018-12-14T15:26:14.126Z,8.75
2018-12-14T15:28:43.837Z,13.98
2018-12-14T15:31:12.573Z,11.28
2018-12-14T15:33:41.381Z,16.45
2018-12-14T15:36:14.232Z,8.13
2018-12-14T15:38:47.649Z,12.65
2018-12-14T15:41:16.438Z,12.82
2018-12-14T15:43:45.325Z,13.65
2018-12-14T15:46:21.469Z,12.07
2018-12-14T15:48:50.276Z,9.45
2018-12-14T15:51:19.001Z,9.50
2018-12-14T15:53:47.769Z,14.03
2018-12-14T15:56:18.477Z,17.90
2018-12-14T15:58:48.090Z,9.70
2018-12-14T16:01:22.202Z,15.25
2018-12-14T16:03:54.238Z,11.95
2018-12-14T16:06:24.102Z,10.75
2018-12-14T16:08:53.849Z,10.82
2018-12-14T16:11:22.693Z,10.88
2018-12-14T16:13:53.654Z,10.28
2018-12-14T16:16:24.454Z,11.85
2018-12-14T16:18:53.274Z,10.35
2018-12-14T16:21:22.106Z,7.50
2018-12-14T16:23:50.879Z,13.40
2018-12-14T16:26:20.870Z,8.40
2018-12-14T16:28:49.714Z,10.05
2018-12-14T16:31:23.057Z,13.00
2018-12-14T16:33:52.822Z,11.33
2018-12-14T16:36:26.494Z,10.63
2018-12-14T16:38:56.374Z,12.63
2018-12-14T16:41:27.078Z,11.22
2018-12-14T16:43:56.858Z,9.15
2018-12-14T16:46:26.594Z,6.92
2018-12-14T16:48:57.294Z,8.55
2018-12-14T16:51:26.115Z,13.22
2018-12-14T16:54:01.827Z,8.33
2018-12-14T16:56:30.530Z,9.25
2018-12-14T16:59:07.590Z,9.70
2018-12-14T17:01:36.422Z,8.20
2018-12-14T17:04:05.294Z,11.10
2018-12-14T17:06:34.129Z,11.55
2018-12-14T17:09:04.078Z,13.75
2018-12-14T17:11:36.030Z,7.40
2018-12-14T17:14:04.931Z,10.93
2018-12-14T17:16:35.547Z,14.85
2018-12-14T17:19:06.249Z,11.43
2018-12-14T17:21:36.003Z,7.53
2018-12-14T17:24:05.019Z,10.28
2018-12-14T17:26:37.567Z,7.40
2018-12-14T17:29:09.775Z,13.62
2018-12-14T17:31:39.551Z,9.00
2018-12-14T17:34:10.331Z,6.53
2018-12-14T17:36:43.990Z,13.45
2018-12-14T17:39:14.741Z,8.25
2018-12-14T17:41:44.803Z,8.68
2018-12-14T17:44:13.535Z,8.53
2018-12-14T17:46:46.944Z,8.38
2018-12-14T17:49:16.743Z,6.83
2018-12-14T17:51:45.790Z,6.92
2018-12-14T17:54:14.511Z,11.40
2018-12-14T17:56:45.231Z,9.93
2018-12-14T17:59:14.897Z,12.88
2018-12-14T18:01:43.815Z,8.70
2018-12-14T18:04:19.739Z,9.75
2018-12-14T18:06:49.339Z,9.58
2018-12-14T18:09:21.492Z,8.08
2018-12-14T18:11:51.410Z,15.40
2018-12-14T18:14:20.155Z,10.88
2018-12-14T18:16:48.891Z,11.48
2018-12-14T18:19:17.639Z,15.20
2018-12-14T18:21:46.551Z,8.85
2018-12-14T18:24:18.503Z,8.00
2018-12-14T18:26:47.462Z,9.35
2018-12-14T18:29:16.284Z,11.10
2018-12-14T18:31:46.531Z,21.80
2018-12-14T18:34:15.355Z,8.38
2018-12-14T18:36:49.643Z,10.40
2018-12-14T18:39:19.447Z,14.68
2018-12-14T18:41:49.107Z,9.38
2018-12-14T18:44:18.763Z,8.38
2018-12-14T18:46:51.291Z,13.32
2018-12-14T18:49:20.971Z,10.70
2018-12-14T18:51:49.695Z,13.85
2018-12-14T18:54:20.315Z,11.93
2018-12-14T18:56:54.131Z,11.35
2018-12-14T18:59:25.131Z,9.93
2018-12-14T19:02:00.503Z,10.82
2018-12-14T19:07:10.043Z,15.70
2018-12-14T19:09:38.923Z,12.03
2018-12-14T19:12:08.675Z,14.93
2018-12-14T19:14:38.400Z,10.30
2018-12-14T19:17:12.555Z,15.13
2018-12-14T19:19:46.111Z,13.22
2018-12-14T19:22:14.927Z,11.03
2018-12-14T19:24:45.568Z,14.07
2018-12-14T19:27:15.259Z,14.60
2018-12-14T19:29:44.060Z,15.53
2018-12-14T19:32:13.719Z,13.75
2018-12-14T19:34:42.532Z,21.07
2018-12-14T19:37:13.357Z,17.52
2018-12-14T19:39:42.181Z,13.60
2018-12-14T19:42:10.991Z,10.72
2018-12-14T19:44:40.715Z,16.52
2018-12-14T19:47:10.656Z,11.38
2018-12-14T19:49:39.777Z,11.65
2018-12-14T19:52:09.908Z,17.07
2018-12-14T19:54:42.311Z,14.33
2018-12-14T19:57:11.123Z,11.38
2018-12-14T19:59:40.540Z,13.00
2018-12-14T20:02:09.388Z,11.05
2018-12-14T20:04:41.996Z,14.28
2018-12-14T20:07:12.639Z,11.20
2018-12-14T20:09:44.728Z,12.03
2018-12-14T20:12:17.795Z,11.85
2018-12-14T20:14:46.567Z,14.50
2018-12-14T20:17:17.256Z,17.02
2018-12-14T20:19:50.587Z,13.28
2018-12-14T20:22:24.288Z,13.00
2018-12-14T20:24:54.916Z,13.08
2018-12-14T20:27:27.194Z,10.58
2018-12-14T20:29:56.119Z,14.80
2018-12-14T20:32:24.971Z,11.85
2018-12-14T20:34:54.659Z,15.88
2018-12-14T20:37:23.668Z,13.55
2018-12-14T20:39:55.827Z,19.00
2018-12-14T20:42:24.635Z,12.33
2018-12-14T20:44:57.231Z,16.20
2018-12-14T20:47:27.099Z,16.87
2018-12-14T20:49:55.919Z,20.30
2018-12-14T20:52:31.011Z,11.93
2018-12-14T20:54:59.823Z,11.97
2018-12-14T20:57:33.679Z,11.68
2018-12-14T21:00:05.307Z,15.68
2018-12-14T21:02:38.917Z,13.32
2018-12-14T21:05:08.035Z,11.25
2018-12-14T21:07:36.871Z,14.78
2018-12-14T21:10:09.307Z,16.37
2018-12-14T21:12:44.938Z,12.73
2018-12-14T21:15:13.711Z,14.90
2018-12-14T21:17:42.567Z,14.18
2018-12-14T21:20:13.592Z,12.78
2018-12-14T21:22:45.460Z,15.05
2018-12-14T21:25:15.439Z,15.75
2018-12-14T21:27:45.213Z,22.85
2018-12-14T21:30:14.071Z,12.13
2018-12-14T21:32:42.935Z,15.13
2018-12-14T21:35:12.223Z,16.50
2018-12-14T21:37:42.227Z,14.00
2018-12-14T21:40:11.203Z,13.72
2018-12-14T21:42:40.035Z,15.35
2018-12-14T21:45:10.887Z,18.52
2018-12-14T21:47:39.703Z,14.18
2018-12-14T21:50:14.403Z,14.10
2018-12-14T21:52:43.269Z,15.18
2018-12-14T21:55:13.167Z,18.65
2018-12-14T21:57:41.929Z,21.02
2018-12-14T22:00:12.070Z,14.25
2018-12-14T22:02:41.003Z,18.12
2018-12-14T22:05:12.795Z,17.75
2018-12-14T22:07:41.672Z,17.85
2018-12-14T22:10:12.439Z,15.10
2018-12-14T22:12:41.259Z,15.53
2018-12-14T22:15:16.112Z,21.27
2018-12-14T22:17:48.091Z,18.05
2018-12-14T22:20:18.863Z,17.20
2018-12-14T22:22:50.979Z,22.45
2018-12-14T22:25:25.867Z,15.50
2018-12-14T22:27:56.701Z,18.82
2018-12-14T22:30:26.419Z,18.80
2018-12-14T22:32:58.463Z,19.60
2018-12-14T22:35:27.423Z,22.17
2018-12-14T22:37:58.179Z,22.00
2018-12-14T22:40:27.074Z,19.52
2018-12-14T22:42:55.895Z,20.23
2018-12-14T22:45:26.551Z,18.20
2018-12-14T22:47:57.639Z,25.70
2018-12-14T22:50:30.111Z,18.00
2018-12-14T22:53:00.992Z,19.12
2018-12-14T22:55:29.723Z,21.12
2018-12-14T22:57:59.410Z,23.07
2018-12-14T23:00:30.323Z,18.95
2018-12-14T23:02:59.148Z,19.95
2018-12-14T23:05:28.028Z,19.23
2018-12-14T23:07:57.811Z,23.87
2018-12-14T23:10:28.548Z,21.95
2018-12-14T23:12:57.276Z,16.05
2018-12-14T23:15:32.099Z,24.52
2018-12-14T23:18:01.260Z,18.95
2018-12-14T23:20:30.179Z,23.50
2018-12-14T23:22:58.955Z,20.23
2018-12-14T23:25:29.579Z,30.25
2018-12-14T23:28:02.611Z,22.02
2018-12-14T23:30:33.327Z,20.12
2018-12-14T23:33:02.259Z,18.62
2018-12-14T23:35:31.930Z,26.93
2018-12-14T23:38:00.671Z,22.00
2018-12-14T23:40:29.455Z,19.02
2018-12-14T23:42:58.257Z,18.87
2018-12-14T23:45:27.143Z,22.45
2018-12-14T23:48:00.544Z,22.22
2018-12-14T23:50:30.091Z,21.33
2018-12-14T23:52:58.930Z,18.57
2018-12-14T23:55:27.639Z,17.65
2018-12-14T23:57:56.596Z,19.55
